Time;durP1;ratioP1;P1;durP2;ratioP2;P2;SDS_P1;SDS_P2;PMS_P1;PMS_P2;Temp;Humidity;BMP_temperature;BMP_pressure;BME280_temperature;BME280_humidity;BME280_pressure;Samples;Min_cycle;Max_cycle;Signal;HPM_P1;HPM_P2
2023/06/14 00:00:40;;;;;;;6.28;4.82;;;;;;;7.98;100.00;92599.72;2543100;23;20012;-82
2023/06/14 00:01:49;;;;;;;5.63;5.05;;;;;;;7.94;100.00;92593.72;2556268;23;20029;-83
2023/06/14 00:02:55;;;;;;;7.07;4.57;;;;;;;8.00;100.00;92594.75;2565900;23;20452;-82
2023/06/14 00:04:13;;;;;;;7.15;4.95;;;;;;;7.98;100.00;92594.41;2555146;23;20055;-82
2023/06/14 00:05:23;;;;;;;6.30;4.72;;;;;;;7.90;100.00;92596.47;2533737;23;20017;-83
2023/06/14 00:06:33;;;;;;;7.97;4.85;;;;;;;8.04;100.00;92590.84;2534307;23;20453;-83
2023/06/14 00:07:48;;;;;;;8.90;4.80;;;;;;;8.01;100.00;92585.59;2532391;23;20477;-83
2023/06/14 00:08:54;;;;;;;9.07;5.03;;;;;;;7.99;100.00;92591.34;2532924;23;21168;-81
2023/06/14 00:10:01;;;;;;;5.28;4.78;;;;;;;7.98;100.00;92587.16;2532263;23;20006;-81
2023/06/14 00:11:07;;;;;;;8.55;5.40;;;;;;;7.80;100.00;92586.78;2542074;23;20018;-80
2023/06/14 00:12:16;;;;;;;8.65;5.07;;;;;;;7.66;100.00;92590.47;2520890;23;20006;-80
2023/06/14 00:13:21;;;;;;;8.57;4.93;;;;;;;7.73;100.00;92593.00;2533625;23;20034;-83
2023/06/14 00:14:25;;;;;;;6.50;5.35;;;;;;;7.79;100.00;92585.28;2531267;23;20061;-83
2023/06/14 00:15:30;;;;;;;9.35;4.97;;;;;;;7.77;100.00;92587.59;2519575;23;20516;-84
2023/06/14 00:16:38;;;;;;;8.55;5.38;;;;;;;7.60;100.00;92586.06;2521487;23;20006;-83
2023/06/14 00:17:41;;;;;;;6.10;4.93;;;;;;;7.65;100.00;92578.34;2520006;23;20640;-83
2023/06/14 00:18:49;;;;;;;11.90;5.38;;;;;;;7.61;100.00;92582.22;2531518;23;20010;-81
2023/06/14 00:19:59;;;;;;;6.32;5.28;;;;;;;7.66;100.00;92581.75;2543866;23;20001;-84
2023/06/14 00:21:08;;;;;;;8.15;4.82;;;;;;;7.60;100.00;92578.81;2556082;23;20440;-83
2023/06/14 00:22:16;;;;;;;6.93;5.28;;;;;;;7.61;100.00;92579.56;2555166;23;20015;-80
2023/06/14 00:23:23;;;;;;;8.02;5.30;;;;;;;7.57;100.00;92585.69;2544433;23;20013;-83
2023/06/14 00:24:29;;;;;;;6.70;5.32;;;;;;;7.63;100.00;92577.25;2542824;23;20036;-82
2023/06/14 00:25:35;;;;;;;7.32;5.05;;;;;;;7.55;100.00;92582.72;2532327;23;20016;-84
2023/06/14 00:26:37;;;;;;;7.63;4.95;;;;;;;7.61;100.00;92584.88;2555863;23;20005;-82
2023/06/14 00:27:43;;;;;;;7.03;5.32;;;;;;;7.53;100.00;92579.69;2555041;23;20005;-81
2023/06/14 00:28:50;;;;;;;8.05;5.05;;;;;;;7.48;100.00;92582.09;2531563;23;20156;-83
2023/06/14 00:29:58;;;;;;;6.78;5.10;;;;;;;7.51;100.00;92583.94;2520691;23;20030;-83
2023/06/14 00:31:06;;;;;;;7.03;5.05;;;;;;;7.48;100.00;92582.09;2532788;23;20010;-84
2023/06/14 00:32:11;;;;;;;9.68;5.22;;;;;;;7.47;100.00;92581.34;2555062;23;20020;-83
2023/06/14 00:33:16;;;;;;;6.07;5.03;;;;;;;7.48;100.00;92579.44;2554551;23;20025;-83
2023/06/14 00:34:21;;;;;;;6.50;5.22;;;;;;;7.49;100.00;92579.00;2566297;23;20139;-82
2023/06/14 00:35:30;;;;;;;5.55;4.95;;;;;;;7.54;100.00;92580.44;2531103;23;20016;-83
2023/06/14 00:36:37;;;;;;;6.40;5.10;;;;;;;7.40;100.00;92580.72;2545914;23;20029;-82
2023/06/14 00:37:45;;;;;;;8.48;5.13;;;;;;;7.43;100.00;92577.25;2554525;23;20486;-85
2023/06/14 00:38:55;;;;;;;11.00;5.78;;;;;;;7.36;100.00;92575.44;2543982;23;20014;-86
2023/06/14 00:40:05;;;;;;;6.28;5.50;;;;;;;7.33;100.00;92570.94;2544203;23;20012;-83
2023/06/14 00:41:10;;;;;;;10.98;5.70;;;;;;;7.36;100.00;92580.78;2554653;23;20012;-84
2023/06/14 00:42:27;;;;;;;11.65;5.60;;;;;;;7.39;100.00;92579.22;2554836;23;20059;-84
2023/06/14 00:43:34;;;;;;;6.75;4.97;;;;;;;7.39;100.00;92579.22;2545995;23;20016;-83
2023/06/14 00:44:41;;;;;;;6.32;5.07;;;;;;;7.17;100.00;92584.91;2531662;23;20052;-85
2023/06/14 00:45:49;;;;;;;9.48;5.13;;;;;;;7.32;100.00;92572.09;2533071;23;20001;-83
2023/06/14 00:46:52;;;;;;;10.30;4.90;;;;;;;7.23;100.00;92577.22;2531809;23;20025;-83
2023/06/14 00:48:02;;;;;;;7.53;5.40;;;;;;;7.26;100.00;92574.50;2530883;23;20513;-83
2023/06/14 00:49:09;;;;;;;9.35;5.22;;;;;;;7.28;100.00;92579.41;2544549;23;20349;-84
2023/06/14 00:50:15;;;;;;;5.95;5.32;;;;;;;7.21;100.00;92580.28;2543954;23;20127;-85
2023/06/14 00:51:26;;;;;;;8.32;5.05;;;;;;;7.18;100.00;92577.69;2530894;23;20446;-82
2023/06/14 00:52:33;;;;;;;6.97;5.47;;;;;;;7.10;100.00;92576.31;2534840;23;20010;-83
2023/06/14 00:53:46;;;;;;;8.13;5.43;;;;;;;7.00;100.00;92578.00;2543576;23;20005;-87
2023/06/14 00:54:50;;;;;;;5.60;5.03;;;;;;;7.11;100.00;92583.88;2533021;23;20080;-83
2023/06/14 00:55:55;;;;;;;7.00;5.32;;;;;;;7.18;100.00;92573.13;2531235;23;20095;-86
2023/06/14 00:57:02;;;;;;;9.18;5.35;;;;;;;7.10;100.00;92578.97;2543346;23;20060;-86
2023/06/14 00:58:07;;;;;;;8.10;5.10;;;;;;;7.14;100.00;92569.03;2565313;23;20026;-85
2023/06/14 00:59:13;;;;;;;5.75;5.07;;;;;;;7.04;100.00;92576.03;2554752;23;20338;-86
2023/06/14 01:00:19;;;;;;;9.57;5.15;;;;;;;7.04;100.00;92574.13;2543684;23;20009;-85
2023/06/14 01:01:32;;;;;;;5.55;4.70;;;;;;;7.11;100.00;92575.16;2543195;23;20109;-86
2023/06/14 01:02:39;;;;;;;6.07;4.88;;;;;;;7.15;100.00;92575.84;2532275;23;20006;-82
2023/06/14 01:03:46;;;;;;;7.70;4.80;;;;;;;7.12;100.00;92579.31;2532676;23;20470;-85
2023/06/14 01:04:55;;;;;;;7.25;5.10;;;;;;;7.21;100.00;92574.22;2543285;23;20041;-86
2023/06/14 01:06:14;;;;;;;8.27;4.90;;;;;;;7.14;100.00;92582.31;2544091;23;20381;-84
2023/06/14 01:07:41;;;;;;;5.35;4.85;;;;;;;6.97;100.00;92574.22;2534116;23;20093;-84
2023/06/14 01:09:09;;;;;;;6.97;5.00;;;;;;;6.95;100.00;92573.16;2540936;23;20012;-84
2023/06/14 01:10:36;;;;;;;6.40;4.53;;;;;;;6.96;100.00;92572.00;2547181;23;20009;-83
2023/06/14 01:12:10;;;;;;;7.88;4.65;;;;;;;6.98;100.00;92582.94;2547335;23;20522;-84
2023/06/14 01:13:20;;;;;;;6.20;4.88;;;;;;;7.06;100.00;92574.44;2536788;23;20483;-85
2023/06/14 01:14:29;;;;;;;7.80;5.30;;;;;;;7.03;100.00;92577.94;2532229;23;20006;-85
2023/06/14 01:15:39;;;;;;;8.43;5.47;;;;;;;7.03;100.00;92575.28;2520829;23;20006;-84
2023/06/14 01:16:53;;;;;;;10.82;4.80;;;;;;;6.92;100.00;92576.63;2533636;23;20010;-82
2023/06/14 01:18:02;;;;;;;8.18;5.03;;;;;;;7.15;100.00;92575.84;2542047;23;20001;-85
2023/06/14 01:19:13;;;;;;;6.57;5.32;;;;;;;6.88;100.00;92579.31;2533504;23;20088;-83
2023/06/14 01:20:21;;;;;;;15.85;5.30;;;;;;;6.88;100.00;92576.66;2532136;23;20413;-85
2023/06/14 01:21:41;;;;;;;8.85;5.00;;;;;;;6.88;100.00;92574.00;2534517;23;20358;-84
2023/06/14 01:22:55;;;;;;;7.28;5.18;;;;;;;7.00;100.00;92578.75;2533981;23;20005;-85
2023/06/14 01:24:03;;;;;;;5.78;4.53;;;;;;;6.77;100.00;92581.41;2533264;23;20041;-87
2023/06/14 01:25:08;;;;;;;8.63;5.20;;;;;;;6.68;100.00;92570.56;2533060;23;20350;-84
2023/06/14 01:26:17;;;;;;;6.43;4.88;;;;;;;6.84;100.00;92573.31;2544059;23;20001;-82
2023/06/14 01:27:28;;;;;;;8.57;5.13;;;;;;;6.75;100.00;92570.44;2531731;23;20061;-84
2023/06/14 01:28:36;;;;;;;11.82;5.22;;;;;;;6.82;100.00;92568.41;2532392;23;20056;-87
2023/06/14 01:29:45;;;;;;;5.30;4.72;;;;;;;6.75;100.00;92573.84;2544177;23;20009;-83
2023/06/14 01:30:57;;;;;;;7.80;5.00;;;;;;;6.76;100.00;92575.34;2542403;23;20504;-85
2023/06/14 01:32:00;;;;;;;6.70;5.07;;;;;;;6.64;100.00;92575.94;2522524;23;20397;-83
2023/06/14 01:33:07;;;;;;;5.32;4.68;;;;;;;6.67;100.00;92569.81;2519429;23;20045;-85
2023/06/14 01:34:09;;;;;;;8.07;4.78;;;;;;;6.75;100.00;92575.75;2521048;23;20536;-82
2023/06/14 01:35:11;;;;;;;10.35;4.85;;;;;;;6.62;100.00;92572.16;2530670;23;20473;-86
2023/06/14 01:36:12;;;;;;;9.30;5.32;;;;;;;6.70;100.00;92573.56;2530768;23;20017;-87
2023/06/14 01:37:18;;;;;;;7.97;4.80;;;;;;;6.56;100.00;92575.28;2541744;23;20005;-85
2023/06/14 01:38:32;;;;;;;7.00;4.72;;;;;;;6.44;100.00;92575.84;2542542;23;20017;-85
2023/06/14 01:39:36;;;;;;;6.65;5.40;;;;;;;6.51;100.00;92580.31;2533005;23;20061;-86
2023/06/14 01:40:44;;;;;;;5.60;4.88;;;;;;;6.45;100.00;92573.94;2531035;23;20009;-85
2023/06/14 01:41:50;;;;;;;6.53;5.07;;;;;;;6.40;100.00;92580.44;2543803;23;20024;-85
2023/06/14 01:42:57;;;;;;;8.32;5.20;;;;;;;6.47;100.00;92575.03;2543468;23;20031;-85
2023/06/14 01:44:06;;;;;;;5.80;5.15;;;;;;;6.60;100.00;92564.59;2556223;23;20436;-84
2023/06/14 01:45:12;;;;;;;5.50;4.82;;;;;;;6.61;100.00;92571.41;2542168;23;20084;-85
2023/06/14 01:46:15;;;;;;;5.63;4.75;;;;;;;6.51;100.00;92573.09;2520222;23;20006;-86
2023/06/14 01:47:19;;;;;;;7.60;4.72;;;;;;;6.48;100.00;92581.84;2531051;23;20073;-84
2023/06/14 01:48:25;;;;;;;6.50;4.88;;;;;;;6.52;100.00;92579.88;2530450;23;20021;-85
2023/06/14 01:49:35;;;;;;;5.85;5.00;;;;;;;6.37;100.00;92575.22;2533486;23;20037;-83
2023/06/14 01:50:42;;;;;;;5.43;4.75;;;;;;;6.42;100.00;92570.19;2531396;23;20057;-81
2023/06/14 01:51:49;;;;;;;5.43;4.40;;;;;;;6.47;100.00;92580.34;2531711;23;20467;-85
2023/06/14 01:52:58;;;;;;;7.10;4.82;;;;;;;6.42;100.00;92585.38;2532848;23;20400;-86
2023/06/14 01:54:06;;;;;;;6.45;4.95;;;;;;;6.42;100.00;92588.78;2544467;23;20025;-84
2023/06/14 01:55:21;;;;;;;6.75;5.00;;;;;;;6.46;100.00;92578.09;2542680;23;20005;-83
2023/06/14 01:56:29;;;;;;;7.60;4.68;;;;;;;6.42;100.00;92575.50;2523499;23;20010;-83
2023/06/14 01:57:39;;;;;;;6.95;5.32;;;;;;;6.41;100.00;92583.84;2533308;23;20453;-83
2023/06/14 01:58:49;;;;;;;5.68;5.10;;;;;;;6.41;100.00;92574.00;2532368;23;20012;-86
2023/06/14 01:59:59;;;;;;;6.72;5.30;;;;;;;6.40;100.00;92579.69;2532287;23;20006;-84
2023/06/14 02:01:11;;;;;;;7.15;4.97;;;;;;;6.41;100.00;92575.88;2521420;23;20018;-87
2023/06/14 02:02:20;;;;;;;8.65;4.85;;;;;;;6.44;100.00;92575.09;2522620;23;20335;-85
2023/06/14 02:03:30;;;;;;;6.55;4.75;;;;;;;6.48;100.00;92579.19;2521360;23;20010;-85
2023/06/14 02:04:37;;;;;;;7.82;5.65;;;;;;;6.49;100.00;92575.38;2534281;23;20009;-84
2023/06/14 02:05:44;;;;;;;6.30;4.68;;;;;;;6.46;100.00;92572.78;2531063;23;20014;-85
2023/06/14 02:06:53;;;;;;;5.65;4.68;;;;;;;6.49;100.00;92578.03;2520361;23;20112;-87
2023/06/14 02:08:03;;;;;;;7.55;5.40;;;;;;;6.42;100.00;92580.06;2534013;23;20015;-82
2023/06/14 02:09:10;;;;;;;7.67;5.33;;;;;;;6.36;100.00;92579.00;2531789;23;20006;-83
2023/06/14 02:10:18;;;;;;;5.47;4.60;;;;;;;6.31;100.00;92575.63;2532887;23;20489;-83
2023/06/14 02:11:25;;;;;;;6.20;4.80;;;;;;;6.31;100.00;92585.50;2543644;23;20002;-86
2023/06/14 02:12:32;;;;;;;5.47;4.95;;;;;;;6.15;100.00;92580.06;2543849;23;20001;-84
2023/06/14 02:13:42;;;;;;;6.50;4.47;;;;;;;6.25;100.00;92589.78;2531151;23;20006;-84
2023/06/14 02:14:48;;;;;;;7.80;4.82;;;;;;;6.19;100.00;92583.41;2532173;23;20012;-87
2023/06/14 02:15:57;;;;;;;5.93;4.90;;;;;;;6.30;100.00;92581.34;2532644;23;20010;-86
2023/06/14 02:17:06;;;;;;;6.03;4.75;;;;;;;6.20;100.00;92583.03;2543621;23;20056;-85
2023/06/14 02:18:16;;;;;;;6.22;4.32;;;;;;;6.20;100.00;92582.28;2543079;23;20297;-86
2023/06/14 02:19:21;;;;;;;5.93;4.60;;;;;;;6.21;100.00;92589.06;2544421;23;20085;-86
2023/06/14 02:20:30;;;;;;;5.72;4.47;;;;;;;6.12;100.00;92586.16;2542299;23;20087;-83
2023/06/14 02:21:38;;;;;;;8.00;4.57;;;;;;;6.18;100.00;92587.97;2531242;23;20005;-85
2023/06/14 02:22:43;;;;;;;6.13;4.50;;;;;;;6.14;100.00;92591.81;2521170;23;20006;-83
2023/06/14 02:23:50;;;;;;;8.25;5.20;;;;;;;6.04;100.00;92585.50;2530968;23;20064;-85
2023/06/14 02:24:54;;;;;;;7.13;4.88;;;;;;;6.19;100.00;92584.19;2543621;23;20164;-85
2023/06/14 02:25:58;;;;;;;5.93;4.70;;;;;;;6.13;100.00;92580.44;2554604;23;20459;-86
2023/06/14 02:27:12;;;;;;;8.68;4.50;;;;;;;6.09;100.00;92587.72;2554444;23;20036;-85
2023/06/14 02:28:20;;;;;;;5.80;4.78;;;;;;;6.15;100.00;92577.41;2532468;23;20445;-84
2023/06/14 02:29:26;;;;;;;7.07;4.63;;;;;;;6.19;100.00;92578.09;2531535;23;20116;-86
2023/06/14 02:30:32;;;;;;;6.22;4.65;;;;;;;6.07;100.00;92578.66;2531955;23;20018;-86
2023/06/14 02:31:41;;;;;;;6.18;5.10;;;;;;;6.12;100.00;92581.59;2542998;23;20001;-85
2023/06/14 02:32:45;;;;;;;7.72;4.60;;;;;;;6.18;100.00;92584.56;2555963;23;20005;-84
2023/06/14 02:33:50;;;;;;;5.28;4.70;;;;;;;6.08;100.00;92580.91;2542087;23;20081;-84
2023/06/14 02:34:58;;;;;;;6.28;5.03;;;;;;;5.99;100.00;92576.09;2532022;23;20013;-86
2023/06/14 02:36:06;;;;;;;5.00;4.50;;;;;;;5.97;100.00;92581.06;2532482;23;20384;-84
2023/06/14 02:37:15;;;;;;;5.10;4.50;;;;;;;6.00;100.00;92580.25;2521572;23;20018;-84
2023/06/14 02:38:22;;;;;;;5.40;4.88;;;;;;;5.95;100.00;92583.34;2544432;23;20024;-86
2023/06/14 02:39:32;;;;;;;5.32;4.45;;;;;;;6.01;100.00;92587.06;2555120;23;20083;-84
2023/06/14 02:40:42;;;;;;;6.50;4.75;;;;;;;5.99;100.00;92583.31;2544539;23;20051;-82
2023/06/14 02:41:52;;;;;;;5.38;4.45;;;;;;;6.09;100.00;92581.66;2532448;23;20033;-85
2023/06/14 02:42:58;;;;;;;5.47;4.95;;;;;;;5.99;100.00;92581.41;2534210;23;20077;-84
2023/06/14 02:44:12;;;;;;;9.77;4.57;;;;;;;5.97;100.00;92582.94;2543920;23;20061;-82
2023/06/14 02:45:25;;;;;;;8.25;4.40;;;;;;;5.94;100.00;92586.41;2533697;23;20005;-85
2023/06/14 02:46:31;;;;;;;5.03;4.13;;;;;;;6.01;100.00;92581.00;2533227;23;20002;-85
2023/06/14 02:47:39;;;;;;;5.95;4.38;;;;;;;6.03;100.00;92581.34;2532797;23;20006;-83
2023/06/14 02:48:47;;;;;;;5.25;4.38;;;;;;;6.00;100.00;92582.91;2532281;23;20017;-85
2023/06/14 02:49:53;;;;;;;5.18;4.68;;;;;;;5.87;100.00;92576.59;2533898;23;20005;-82
2023/06/14 02:51:03;;;;;;;6.13;4.18;;;;;;;5.93;100.00;92579.59;2543256;23;20009;-85
2023/06/14 02:52:13;;;;;;;5.88;4.80;;;;;;;5.93;100.00;92575.03;2545593;23;20016;-86
2023/06/14 02:53:21;;;;;;;4.60;4.00;;;;;;;5.94;100.00;92581.84;2532740;23;20009;-83
2023/06/14 02:54:29;;;;;;;4.72;4.32;;;;;;;5.86;100.00;92579.66;2521502;23;20016;-84
2023/06/14 02:55:39;;;;;;;4.70;4.25;;;;;;;5.95;100.00;92579.94;2532431;23;20170;-84
2023/06/14 02:56:45;;;;;;;;;;;;;;;5.95;100.00;92578.03;2523340;23;20098;-85
2023/06/14 02:57:53;;;;;;;4.97;4.47;;;;;;;5.96;100.00;92574.22;2532693;23;19904;-84
2023/06/14 02:59:03;;;;;;;5.10;4.50;;;;;;;5.96;100.00;92576.13;2544578;23;20427;-85
2023/06/14 03:00:12;;;;;;;;;;;;;;;5.96;100.00;92576.88;2555461;23;20008;-83
2023/06/14 03:01:21;;;;;;;4.68;4.22;;;;;;;5.99;100.00;92578.75;2544580;23;19953;-83
2023/06/14 03:02:27;;;;;;;5.47;4.30;;;;;;;5.88;100.00;92580.00;2544561;23;20010;-83
2023/06/14 03:03:37;;;;;;;5.78;4.65;;;;;;;5.96;100.00;92573.47;2556359;23;20029;-82
2023/06/14 03:04:46;;;;;;;5.55;4.20;;;;;;;5.88;100.00;92582.66;2542960;23;20088;-84
2023/06/14 03:05:51;;;;;;;6.37;4.23;;;;;;;5.82;100.00;92579.69;2522082;23;20010;-83
2023/06/14 03:06:56;;;;;;;4.65;4.22;;;;;;;5.86;100.00;92580.41;2532121;23;20932;-83
2023/06/14 03:08:03;;;;;;;5.57;4.13;;;;;;;5.92;100.00;92580.72;2543906;23;20008;-83
2023/06/14 03:09:09;;;;;;;4.50;4.10;;;;;;;5.92;100.00;92578.81;2554498;23;20001;-84
2023/06/14 03:10:15;;;;;;;4.50;4.10;;;;;;;5.93;100.00;92580.34;2567292;23;20424;-87
2023/06/14 03:11:20;;;;;;;7.05;4.25;;;;;;;5.92;100.00;92586.03;2555081;23;20017;-83
2023/06/14 03:12:23;;;;;;;5.22;4.18;;;;;;;5.86;100.00;92584.97;2531409;23;20724;-84
2023/06/14 03:13:32;;;;;;;5.63;4.63;;;;;;;5.87;100.00;92584.56;2519971;23;20013;-83
2023/06/14 03:14:41;;;;;;;5.78;4.13;;;;;;;5.78;100.00;92592.25;2522726;23;20052;-82
2023/06/14 03:15:50;;;;;;;7.47;4.47;;;;;;;5.81;100.00;92592.22;2522034;23;20038;-85
2023/06/14 03:17:00;;;;;;;4.63;4.20;;;;;;;5.79;100.00;92591.09;2521519;23;20006;-86
2023/06/14 03:18:11;;;;;;;6.20;4.30;;;;;;;5.75;100.00;92598.34;2522077;23;20058;-84
2023/06/14 03:19:27;;;;;;;5.25;4.32;;;;;;;5.66;100.00;92595.41;2534978;23;20085;-84
2023/06/14 03:20:33;;;;;;;5.53;4.13;;;;;;;5.67;100.00;92603.00;2545552;23;20073;-83
2023/06/14 03:21:44;;;;;;;5.78;4.20;;;;;;;5.66;100.00;92595.41;2531636;23;20025;-86
2023/06/14 03:22:47;;;;;;;4.65;4.25;;;;;;;5.69;100.00;92600.69;2522898;23;20089;-84
2023/06/14 03:23:52;;;;;;;5.35;4.70;;;;;;;5.62;100.00;92598.13;2519475;23;20030;-86
2023/06/14 03:25:00;;;;;;;5.53;4.07;;;;;;;5.61;100.00;92593.97;2543982;23;20001;-87
2023/06/14 03:26:06;;;;;;;4.78;4.15;;;;;;;5.67;100.00;92599.59;2556430;23;20009;-86
2023/06/14 03:27:12;;;;;;;4.85;4.00;;;;;;;5.72;100.00;92593.84;2554584;23;20009;-83
2023/06/14 03:28:18;;;;;;;5.13;4.20;;;;;;;5.76;100.00;92603.25;2544583;23;20314;-86
2023/06/14 03:29:21;;;;;;;7.20;4.47;;;;;;;5.72;100.00;92601.81;2544165;23;20009;-83
2023/06/14 03:30:23;;;;;;;6.18;4.30;;;;;;;5.73;100.00;92601.41;2543105;23;20001;-84
2023/06/14 03:31:34;;;;;;;9.23;4.32;;;;;;;5.76;100.00;92599.88;2542654;23;20080;-85
2023/06/14 03:32:40;;;;;;;5.35;4.50;;;;;;;5.74;100.00;92599.50;2545438;23;20429;-85
2023/06/14 03:33:48;;;;;;;6.38;3.97;;;;;;;5.72;100.00;92605.19;2531765;23;20010;-84
2023/06/14 03:34:55;;;;;;;5.68;4.40;;;;;;;5.67;100.00;92604.91;2534062;23;20002;-84
2023/06/14 03:36:02;;;;;;;5.50;4.18;;;;;;;5.71;100.00;92605.59;2544127;23;20008;-86
2023/06/14 03:37:10;;;;;;;5.88;3.90;;;;;;;5.74;100.00;92596.84;2531254;23;20089;-83
2023/06/14 03:38:18;;;;;;;7.85;4.72;;;;;;;5.70;100.00;92596.88;2533341;23;20025;-86
2023/06/14 03:39:20;;;;;;;5.55;4.72;;;;;;;5.67;100.00;92599.59;2556511;23;20348;-87
2023/06/14 03:40:27;;;;;;;6.40;4.38;;;;;;;5.72;100.00;92599.16;2555003;23;20005;-83
2023/06/14 03:41:33;;;;;;;5.00;4.50;;;;;;;5.69;100.00;92611.28;2531617;23;20025;-83
2023/06/14 03:42:43;;;;;;;5.18;4.68;;;;;;;5.74;100.00;92602.88;2533019;23;20002;-83
2023/06/14 03:43:47;;;;;;;10.73;4.28;;;;;;;5.81;100.00;92604.72;2555239;23;20009;-87
2023/06/14 03:44:50;;;;;;;4.75;4.32;;;;;;;5.72;100.00;92604.44;2543622;23;20385;-85
2023/06/14 03:45:58;;;;;;;5.07;4.32;;;;;;;5.66;100.00;92611.31;2530364;23;20010;-85
2023/06/14 03:47:07;;;;;;;6.80;4.78;;;;;;;5.68;100.00;92612.44;2520482;23;20077;-84
2023/06/14 03:48:16;;;;;;;5.38;4.03;;;;;;;5.71;100.00;92608.25;2533540;23;20457;-85
2023/06/14 03:49:21;;;;;;;5.68;4.20;;;;;;;5.72;100.00;92617.72;2520629;23;20391;-86
2023/06/14 03:50:29;;;;;;;4.72;4.22;;;;;;;5.81;100.00;92615.31;2532524;23;20029;-86
2023/06/14 03:51:35;;;;;;;5.68;4.13;;;;;;;5.75;100.00;92609.72;2531735;23;20516;-83
2023/06/14 03:52:43;;;;;;;4.95;4.47;;;;;;;5.80;100.00;92611.94;2531651;23;20251;-85
2023/06/14 03:53:51;;;;;;;5.40;3.90;;;;;;;5.92;100.00;92617.88;2533333;23;20410;-86
2023/06/14 03:54:56;;;;;;;5.75;4.20;;;;;;;5.84;100.00;92611.88;2544087;23;20128;-86
2023/06/14 03:56:03;;;;;;;4.38;3.97;;;;;;;5.84;100.00;92611.13;2555944;23;20005;-85
2023/06/14 03:57:14;;;;;;;5.55;4.15;;;;;;;5.85;100.00;92616.03;2542711;23;20013;-85
2023/06/14 03:58:24;;;;;;;4.68;4.18;;;;;;;5.79;100.00;92614.97;2522760;23;20006;-85
2023/06/14 03:59:38;;;;;;;5.13;4.63;;;;;;;5.85;100.00;92617.94;2534111;23;20056;-84
2023/06/14 04:00:46;;;;;;;5.38;4.88;;;;;;;5.84;100.00;92617.19;2533114;23;20377;-88
2023/06/14 04:01:53;;;;;;;5.38;4.82;;;;;;;5.91;100.00;92619.00;2520309;23;20021;-85
2023/06/14 04:02:58;;;;;;;5.43;4.93;;;;;;;5.90;100.00;92612.19;2533697;23;20006;-86
2023/06/14 04:04:06;;;;;;;4.97;4.50;;;;;;;5.93;100.00;92619.41;2530910;23;20010;-84
2023/06/14 04:05:12;;;;;;;5.15;4.45;;;;;;;5.89;100.00;92624.72;2533617;23;20029;-86
2023/06/14 04:06:19;;;;;;;6.10;4.40;;;;;;;5.96;100.00;92627.28;2532024;23;20029;-85
2023/06/14 04:07:21;;;;;;;6.72;4.80;;;;;;;5.99;100.00;92618.53;2533493;23;20005;-85
2023/06/14 04:08:24;;;;;;;6.22;4.47;;;;;;;5.99;100.00;92612.47;2543151;23;20084;-84
2023/06/14 04:09:31;;;;;;;5.15;4.47;;;;;;;6.00;100.00;92622.69;2543235;23;20493;-85
2023/06/14 04:10:39;;;;;;;4.93;4.40;;;;;;;6.01;100.00;92621.56;2521449;23;20006;-82
2023/06/14 04:11:51;;;;;;;9.02;4.20;;;;;;;6.07;100.00;92621.09;2533781;23;20013;-83
2023/06/14 04:12:56;;;;;;;8.43;4.22;;;;;;;6.02;100.00;92617.00;2544256;23;20132;-85
2023/06/14 04:14:05;;;;;;;5.18;4.25;;;;;;;6.10;100.00;92625.59;2531443;23;20060;-84
2023/06/14 04:15:11;;;;;;;5.75;4.22;;;;;;;6.02;100.00;92624.97;2521895;23;20014;-86
2023/06/14 04:16:20;;;;;;;5.60;4.10;;;;;;;6.16;100.00;92627.44;2533088;23;20049;-86
2023/06/14 04:17:28;;;;;;;4.53;4.13;;;;;;;6.17;100.00;92617.56;2532066;23;20329;-85
2023/06/14 04:18:33;;;;;;;8.02;4.20;;;;;;;6.16;100.00;92618.72;2521211;23;20521;-85
2023/06/14 04:19:36;;;;;;;6.50;4.15;;;;;;;6.19;100.00;92621.31;2532693;23;20006;-83
2023/06/14 04:20:45;;;;;;;7.47;4.28;;;;;;;6.28;100.00;92620.84;2554690;23;20024;-87
2023/06/14 04:21:55;;;;;;;7.70;4.70;;;;;;;6.29;100.00;92619.69;2542674;23;20080;-85
2023/06/14 04:23:17;;;;;;;4.78;4.38;;;;;;;6.37;100.00;92626.38;2534517;23;20006;-83
2023/06/14 04:24:22;;;;;;;5.72;4.35;;;;;;;6.37;100.00;92626.38;2547036;23;20048;-84
2023/06/14 04:25:34;;;;;;;4.85;4.38;;;;;;;6.39;100.00;92626.72;2555628;23;20001;-86
2023/06/14 04:26:47;;;;;;;5.38;4.68;;;;;;;6.46;100.00;92626.63;2553107;23;20012;-85
2023/06/14 04:27:53;;;;;;;4.55;3.95;;;;;;;6.46;100.00;92628.56;2551385;23;20009;-85
2023/06/14 04:28:56;;;;;;;5.53;4.45;;;;;;;6.50;100.00;92631.91;2548686;23;20011;-87
2023/06/14 04:29:59;;;;;;;8.48;4.15;;;;;;;6.52;100.00;92632.25;2551561;23;20206;-83
2023/06/14 04:31:01;;;;;;;4.22;3.88;;;;;;;6.51;100.00;92628.84;2538903;23;20015;-85
2023/06/14 04:32:06;;;;;;;5.53;4.45;;;;;;;6.56;100.00;92628.38;2525183;23;20311;-85
2023/06/14 04:33:13;;;;;;;7.80;4.57;;;;;;;6.59;100.00;92631.41;2537741;23;20005;-84
2023/06/14 04:34:18;;;;;;;6.32;4.30;;;;;;;6.59;100.00;92639.38;2539906;23;20009;-83
2023/06/14 04:35:20;;;;;;;5.22;3.92;;;;;;;6.69;100.00;92628.56;2539522;23;20014;-87
2023/06/14 04:36:26;;;;;;;6.47;3.78;;;;;;;6.75;100.00;92626.97;2539626;23;20539;-86
2023/06/14 04:37:33;;;;;;;7.03;4.20;;;;;;;6.75;100.00;92634.91;2528105;23;20476;-86
2023/06/14 04:38:39;;;;;;;4.72;4.13;;;;;;;6.79;100.00;92630.31;2527867;23;20030;-85
2023/06/14 04:39:43;;;;;;;6.00;4.10;;;;;;;6.87;100.00;92641.59;2541302;23;20001;-85
2023/06/14 04:40:48;;;;;;;5.03;4.10;;;;;;;6.88;100.00;92643.06;2563591;23;20339;-83
2023/06/14 04:41:52;;;;;;;8.63;4.95;;;;;;;6.98;100.00;92636.09;2539206;23;20009;-85
2023/06/14 04:42:58;;;;;;;5.25;4.47;;;;;;;6.98;100.00;92639.53;2527879;23;20009;-85
2023/06/14 04:44:03;;;;;;;7.28;4.03;;;;;;;7.03;100.00;92639.06;2528881;23;20005;-86
2023/06/14 04:45:10;;;;;;;11.38;4.97;;;;;;;7.05;100.00;92631.41;2527949;23;20010;-84
2023/06/14 04:46:17;;;;;;;5.75;4.22;;;;;;;7.13;100.00;92636.63;2517894;23;20009;-86
2023/06/14 04:47:18;;;;;;;4.70;4.18;;;;;;;7.18;100.00;92633.50;2529953;23;20033;-84
2023/06/14 04:48:20;;;;;;;7.07;4.72;;;;;;;7.19;100.00;92643.72;2540251;23;20524;-86
2023/06/14 04:49:23;;;;;;;5.30;4.80;;;;;;;7.24;100.00;92642.50;2528539;23;20044;-84
2023/06/14 04:50:24;;;;;;;6.78;4.40;;;;;;;7.26;100.00;92646.28;2528425;23;20033;-85
2023/06/14 04:51:29;;;;;;;4.25;3.85;;;;;;;7.31;100.00;92645.78;2514249;23;20346;-85
2023/06/14 04:52:31;;;;;;;4.93;4.38;;;;;;;7.36;100.00;92641.16;2530168;23;20017;-83
2023/06/14 04:53:32;;;;;;;4.82;4.43;;;;;;;7.43;100.00;92649.03;2540136;23;20009;-85
2023/06/14 04:54:33;;;;;;;5.20;4.63;;;;;;;7.46;100.00;92646.31;2528237;23;20010;-86
2023/06/14 04:55:37;;;;;;;6.97;4.45;;;;;;;7.50;100.00;92649.63;2527686;23;20454;-83
2023/06/14 04:56:38;;;;;;;5.13;4.18;;;;;;;7.52;100.00;92647.34;2540455;23;20009;-85
2023/06/14 04:57:41;;;;;;;5.75;4.30;;;;;;;7.57;100.00;92656.75;2539348;23;20496;-82
2023/06/14 04:58:43;;;;;;;6.72;4.35;;;;;;;7.62;100.00;92650.97;2528282;23;20010;-84
2023/06/14 04:59:45;;;;;;;5.53;4.97;;;;;;;7.66;100.00;92643.66;2528283;23;20446;-85
2023/06/14 05:00:46;;;;;;;13.05;4.45;;;;;;;7.74;100.00;92650.38;2527628;23;20032;-87
2023/06/14 05:01:48;;;;;;;6.55;4.45;;;;;;;7.80;100.00;92648.72;2528286;23;20006;-85
2023/06/14 05:02:52;;;;;;;5.28;4.20;;;;;;;7.85;100.00;92646.75;2540109;23;20009;-85
2023/06/14 05:03:54;;;;;;;5.05;4.25;;;;;;;7.89;100.00;92650.09;2528297;23;20005;-87
2023/06/14 05:04:56;;;;;;;5.00;4.13;;;;;;;7.92;100.00;92651.94;2515526;23;20016;-83
2023/06/14 05:05:57;;;;;;;5.10;4.55;;;;;;;8.00;100.00;92654.06;2516261;23;20029;-83
2023/06/14 05:06:59;;;;;;;5.30;4.80;;;;;;;8.12;100.00;92657.25;2515655;23;20532;-85
2023/06/14 05:08:00;;;;;;;5.47;4.82;;;;;;;8.15;100.00;92646.53;2540219;23;20005;-84
2023/06/14 05:09:01;;;;;;;6.60;4.82;;;;;;;8.23;100.00;92655.13;2539712;23;20117;-84
2023/06/14 05:10:03;;;;;;;8.60;4.82;;;;;;;8.35;100.00;92643.09;2528062;23;20072;-86
2023/06/14 05:11:06;;;;;;;12.43;5.20;;;;;;;8.44;100.00;92645.97;2528154;23;20006;-86
2023/06/14 05:12:10;;;;;;;7.70;4.43;;;;;;;8.49;100.00;92648.91;2552460;23;20013;-84
2023/06/14 05:13:11;;;;;;;14.30;5.32;;;;;;;8.54;100.00;92645.75;2552018;23;20072;-86
2023/06/14 05:14:12;;;;;;;8.77;4.82;;;;;;;8.60;100.00;92646.00;2527217;23;20587;-82
2023/06/14 05:15:14;;;;;;;10.95;5.25;;;;;;;8.67;100.00;92643.19;2527229;23;20045;-85
2023/06/14 05:16:16;;;;;;;7.22;4.53;;;;;;;8.85;100.00;92644.69;2528044;23;20006;-84
2023/06/14 05:17:17;;;;;;;6.95;4.72;;;;;;;9.04;100.00;92647.28;2516384;23;20014;-89